Time;durP1;ratioP1;P1;durP2;ratioP2;P2;SDS_P1;SDS_P2;PMS_P1;PMS_P2;Temp;Humidity;BMP_temperature;BMP_pressure;BME280_temperature;BME280_humidity;BME280_pressure;Samples;Min_cycle;Max_cycle;Signal;HPM_P1;HPM_P2
2022/05/25 00:01:15;;;;;;;;;;;18.10;60.40;;;;;;4996685;28;20589;-75
2022/05/25 00:03:42;;;;;;;;;;;18.10;60.60;;;;;;4999636;28;19934;-75
2022/05/25 00:06:09;;;;;;;;;;;18.10;60.70;;;;;;4998708;28;19934;-77
2022/05/25 00:08:36;;;;;;;;;;;18.10;60.90;;;;;;4992862;28;19933;-75
2022/05/25 00:11:03;;;;;;;;;;;18.00;61.10;;;;;;5001905;28;19941;-76
2022/05/25 00:13:30;;;;;;;;;;;18.00;61.20;;;;;;4998545;28;19940;-75
2022/05/25 00:15:58;;;;;;;;;;;18.00;61.40;;;;;;4991581;28;19937;-75
2022/05/25 00:18:24;;;;;;;;;;;18.00;61.50;;;;;;4997952;28;20320;-73
2022/05/25 00:20:50;;;;;;;;;;;18.00;61.50;;;;;;5000946;28;19929;-74
2022/05/25 00:23:16;;;;;;;;;;;17.90;61.60;;;;;;4996606;28;19932;-75
2022/05/25 00:25:43;;;;;;;;;;;17.90;62.40;;;;;;4995625;28;19930;-76
2022/05/25 00:28:11;;;;;;;;;;;17.90;61.80;;;;;;5002806;28;19929;-76
2022/05/25 00:30:38;;;;;;;;;;;17.90;62.00;;;;;;4998754;28;20016;-78
2022/05/25 00:33:06;;;;;;;;;;;17.90;62.10;;;;;;5002086;28;19936;-75
2022/05/25 00:35:35;;;;;;;;;;;17.80;62.10;;;;;;4996164;28;19929;-74
2022/05/25 00:38:01;;;;;;;;;;;17.80;62.20;;;;;;5001853;28;19936;-74
2022/05/25 00:40:29;;;;;;;;;;;17.80;62.20;;;;;;4995028;28;19935;-74
2022/05/25 00:42:56;;;;;;;;;;;17.70;62.30;;;;;;5000476;28;19936;-75
2022/05/25 00:45:22;;;;;;;;;;;17.70;62.50;;;;;;4995691;28;19938;-73
2022/05/25 00:47:50;;;;;;;;;;;17.70;62.50;;;;;;5007015;28;19929;-75
2022/05/25 00:50:20;;;;;;;;;;;17.70;62.70;;;;;;5005025;28;20588;-73
2022/05/25 00:52:48;;;;;;;;;;;17.70;62.80;;;;;;5001300;28;19929;-73
2022/05/25 00:55:16;;;;;;;;;;;17.70;62.90;;;;;;5000588;28;19929;-74
2022/05/25 00:57:44;;;;;;;;;;;17.60;62.90;;;;;;5007256;28;19936;-76
2022/05/25 01:00:12;;;;;;;;;;;17.60;63.20;;;;;;5002085;28;20771;-74
2022/05/25 01:02:44;;;;;;;;;;;17.50;63.10;;;;;;5005758;28;19933;-76
2022/05/25 01:05:11;;;;;;;;;;;17.50;63.20;;;;;;5003939;28;19930;-76
2022/05/25 01:07:45;;;;;;;;;;;17.60;63.40;;;;;;5002074;28;19940;-73
2022/05/25 01:10:18;;;;;;;;;;;17.50;63.40;;;;;;5002868;28;20684;-75
2022/05/25 01:12:51;;;;;;;;;;;17.50;63.50;;;;;;5003890;28;19933;-74
2022/05/25 01:15:22;;;;;;;;;;;17.50;63.60;;;;;;4996099;28;19929;-73
2022/05/25 01:17:57;;;;;;;;;;;17.50;63.70;;;;;;4997302;28;19937;-74
2022/05/25 01:20:27;;;;;;;;;;;17.40;63.70;;;;;;5002999;28;19936;-74
2022/05/25 01:23:12;;;;;;;;;;;17.40;63.80;;;;;;5003878;28;19930;-74
2022/05/25 01:25:49;;;;;;;;;;;17.40;63.90;;;;;;4997857;28;20030;-75
2022/05/25 01:28:20;;;;;;;;;;;17.40;64.00;;;;;;5001566;28;19929;-74
2022/05/25 01:30:50;;;;;;;;;;;17.40;64.00;;;;;;5000732;28;19929;-73
2022/05/25 01:33:21;;;;;;;;;;;17.30;64.00;;;;;;5002271;28;19929;-74
2022/05/25 01:35:51;;;;;;;;;;;17.30;64.00;;;;;;5004529;28;19936;-74
2022/05/25 01:38:20;;;;;;;;;;;17.30;64.00;;;;;;5006436;28;19936;-75
2022/05/25 01:40:50;;;;;;;;;;;17.30;64.00;;;;;;5002394;28;19937;-75
2022/05/25 01:43:18;;;;;;;;;;;17.30;63.90;;;;;;5001472;28;19930;-74
2022/05/25 01:45:48;;;;;;;;;;;17.20;63.80;;;;;;5000597;28;19940;-74
2022/05/25 01:48:17;;;;;;;;;;;17.20;63.80;;;;;;5004639;28;19940;-74
2022/05/25 01:50:46;;;;;;;;;;;17.20;63.80;;;;;;5002267;28;19934;-75
2022/05/25 01:53:15;;;;;;;;;;;17.20;63.90;;;;;;4994609;28;20432;-74
2022/05/25 01:55:45;;;;;;;;;;;17.20;63.80;;;;;;5000541;28;19937;-76
2022/05/25 01:58:14;;;;;;;;;;;17.20;63.90;;;;;;4999574;28;19968;-76
2022/05/25 02:00:42;;;;;;;;;;;17.10;63.80;;;;;;5001781;28;20021;-74
2022/05/25 02:06:07;;;;;;;;;;;17.10;63.90;;;;;;5001031;28;20463;-74
2022/05/25 02:08:41;;;;;;;;;;;17.10;63.80;;;;;;4999302;28;19945;-75
2022/05/25 02:11:10;;;;;;;;;;;17.10;63.90;;;;;;4996738;28;19933;-76
2022/05/25 02:13:44;;;;;;;;;;;17.10;63.80;;;;;;5002107;28;19936;-76
2022/05/25 02:16:17;;;;;;;;;;;17.00;63.90;;;;;;4992079;28;19929;-75
2022/05/25 02:18:45;;;;;;;;;;;17.00;63.90;;;;;;4999339;28;19937;-74
2022/05/25 02:21:16;;;;;;;;;;;17.00;63.90;;;;;;5000712;28;19936;-77
2022/05/25 02:23:47;;;;;;;;;;;17.00;63.90;;;;;;5001232;28;20034;-75
2022/05/25 02:26:16;;;;;;;;;;;17.00;63.90;;;;;;4996255;28;19936;-74
2022/05/25 02:28:44;;;;;;;;;;;17.00;63.90;;;;;;5002404;28;20024;-76
2022/05/25 02:31:14;;;;;;;;;;;16.90;63.80;;;;;;5000512;28;19926;-74
2022/05/25 02:33:42;;;;;;;;;;;16.90;63.80;;;;;;5002637;28;20558;-75
2022/05/25 02:36:10;;;;;;;;;;;16.90;63.90;;;;;;5000387;28;20187;-75
2022/05/25 02:38:38;;;;;;;;;;;16.90;63.90;;;;;;5005790;28;19931;-74
2022/05/25 02:41:06;;;;;;;;;;;16.90;63.90;;;;;;5003348;28;19930;-75
2022/05/25 02:43:34;;;;;;;;;;;16.90;63.90;;;;;;4998947;28;19984;-74
2022/05/25 02:46:01;;;;;;;;;;;16.90;63.90;;;;;;4996791;28;19937;-74
2022/05/25 02:48:28;;;;;;;;;;;16.80;63.80;;;;;;5002541;28;19929;-74
2022/05/25 02:50:54;;;;;;;;;;;16.90;63.90;;;;;;5002797;28;19933;-76
2022/05/25 02:53:22;;;;;;;;;;;16.80;63.80;;;;;;4996255;28;19937;-75
2022/05/25 02:55:50;;;;;;;;;;;16.80;63.70;;;;;;5002041;28;19933;-75
2022/05/25 02:58:17;;;;;;;;;;;16.80;63.80;;;;;;5005923;28;19944;-75
2022/05/25 03:00:43;;;;;;;;;;;16.80;63.70;;;;;;4998578;28;19929;-74
2022/05/25 03:03:12;;;;;;;;;;;16.80;63.70;;;;;;5002983;28;19926;-77
2022/05/25 03:05:38;;;;;;;;;;;16.80;63.80;;;;;;5002147;28;19933;-76
2022/05/25 03:08:05;;;;;;;;;;;16.70;63.70;;;;;;5000467;28;20678;-75
2022/05/25 03:10:32;;;;;;;;;;;16.70;63.70;;;;;;5000934;28;20047;-75
2022/05/25 03:13:00;;;;;;;;;;;16.70;63.80;;;;;;5001023;28;19933;-74
2022/05/25 03:15:27;;;;;;;;;;;16.70;63.80;;;;;;4992061;28;19936;-76
2022/05/25 03:17:53;;;;;;;;;;;16.60;63.70;;;;;;4992943;28;21760;-74
2022/05/25 03:20:20;;;;;;;;;;;16.70;63.80;;;;;;5002070;28;19929;-77
2022/05/25 03:22:46;;;;;;;;;;;16.60;63.90;;;;;;5002179;28;19929;-74
2022/05/25 03:25:13;;;;;;;;;;;16.60;63.90;;;;;;4996998;28;19929;-75
2022/05/25 03:27:40;;;;;;;;;;;16.60;63.90;;;;;;4998674;28;20576;-75
2022/05/25 03:30:09;;;;;;;;;;;16.60;63.80;;;;;;4998339;28;19926;-75
2022/05/25 03:32:36;;;;;;;;;;;16.60;64.00;;;;;;5002361;28;19925;-75
2022/05/25 03:35:02;;;;;;;;;;;16.50;64.10;;;;;;4999948;28;19940;-73
2022/05/25 03:37:29;;;;;;;;;;;16.50;64.00;;;;;;5005621;28;19929;-76
2022/05/25 03:39:56;;;;;;;;;;;16.50;64.10;;;;;;5000957;28;19930;-74
2022/05/25 03:42:23;;;;;;;;;;;16.50;64.40;;;;;;5001844;28;19941;-75
2022/05/25 03:44:49;;;;;;;;;;;16.50;64.40;;;;;;4993697;28;19991;-76
2022/05/25 03:47:17;;;;;;;;;;;16.40;64.20;;;;;;4999527;28;19929;-74
2022/05/25 03:49:44;;;;;;;;;;;16.40;64.40;;;;;;5002370;28;19941;-73
2022/05/25 03:52:11;;;;;;;;;;;16.40;64.40;;;;;;5001686;28;20052;-77
2022/05/25 03:54:38;;;;;;;;;;;16.40;64.50;;;;;;4995776;28;20300;-74
2022/05/25 03:57:05;;;;;;;;;;;16.30;64.60;;;;;;4999596;28;19936;-76
2022/05/25 03:59:31;;;;;;;;;;;16.40;64.60;;;;;;4996824;28;19941;-77
2022/05/25 04:01:58;;;;;;;;;;;16.40;64.70;;;;;;4996188;28;19960;-74
2022/05/25 04:04:25;;;;;;;;;;;16.30;64.70;;;;;;4999483;28;19988;-76
2022/05/25 04:06:52;;;;;;;;;;;16.30;64.60;;;;;;4998404;28;19930;-73
2022/05/25 04:09:19;;;;;;;;;;;16.30;64.90;;;;;;5006077;28;19929;-74
2022/05/25 04:11:45;;;;;;;;;;;16.30;65.00;;;;;;4994408;28;19938;-75
2022/05/25 04:14:14;;;;;;;;;;;16.30;65.10;;;;;;4996868;28;19937;-74
2022/05/25 04:16:41;;;;;;;;;;;16.20;65.00;;;;;;4993609;28;19929;-75
2022/05/25 04:19:07;;;;;;;;;;;16.20;65.00;;;;;;4992035;28;19941;-72
2022/05/25 04:21:35;;;;;;;;;;;16.20;65.20;;;;;;5003162;28;19937;-75
2022/05/25 04:24:02;;;;;;;;;;;16.20;65.20;;;;;;5004819;28;20021;-74
2022/05/25 04:26:30;;;;;;;;;;;16.20;65.40;;;;;;5003233;28;20031;-74
2022/05/25 04:28:57;;;;;;;;;;;16.10;65.30;;;;;;5003297;28;19935;-74
2022/05/25 04:31:23;;;;;;;;;;;16.10;65.40;;;;;;5002950;28;19929;-74
2022/05/25 04:33:50;;;;;;;;;;;16.10;65.50;;;;;;5004480;28;19934;-76
2022/05/25 04:36:16;;;;;;;;;;;16.00;65.70;;;;;;4998680;28;19937;-74
2022/05/25 04:38:44;;;;;;;;;;;16.10;65.80;;;;;;5004743;28;19929;-75
2022/05/25 04:41:10;;;;;;;;;;;16.10;65.90;;;;;;4997713;28;19940;-74
2022/05/25 04:43:37;;;;;;;;;;;16.00;65.70;;;;;;5001523;28;19933;-75
2022/05/25 04:46:07;;;;;;;;;;;16.00;65.70;;;;;;5001349;28;19929;-75
2022/05/25 04:48:34;;;;;;;;;;;16.00;65.70;;;;;;5001035;28;19933;-74
2022/05/25 04:51:00;;;;;;;;;;;16.00;66.00;;;;;;5004665;28;19940;-75
2022/05/25 04:53:27;;;;;;;;;;;16.00;66.80;;;;;;5002339;28;19936;-75
2022/05/25 04:58:40;;;;;;;;;;;15.90;66.00;;;;;;5002379;28;20377;-75
2022/05/25 05:01:08;;;;;;;;;;;15.90;65.90;;;;;;5003496;28;19936;-76
2022/05/25 05:03:35;;;;;;;;;;;15.90;66.00;;;;;;5001866;28;20083;-72
2022/05/25 05:06:02;;;;;;;;;;;15.80;65.00;;;;;;5003546;28;20432;-73
2022/05/25 05:08:28;;;;;;;;;;;15.70;66.70;;;;;;4999611;28;19936;-75
2022/05/25 05:10:57;;;;;;;;;;;15.60;67.20;;;;;;5002295;28;19933;-73
2022/05/25 05:13:24;;;;;;;;;;;15.60;66.70;;;;;;5008608;28;19976;-73
2022/05/25 05:15:51;;;;;;;;;;;15.60;66.90;;;;;;4994510;28;19929;-74
2022/05/25 05:18:18;;;;;;;;;;;15.60;66.80;;;;;;5005148;28;19975;-74
2022/05/25 05:20:45;;;;;;;;;;;15.60;66.80;;;;;;5000241;28;19948;-75
2022/05/25 05:23:12;;;;;;;;;;;15.60;66.90;;;;;;4999729;28;20488;-77
2022/05/25 05:25:39;;;;;;;;;;;15.60;66.90;;;;;;4989924;28;19930;-73
2022/05/25 05:28:08;;;;;;;;;;;15.60;67.00;;;;;;4996929;28;20872;-72
2022/05/25 05:30:36;;;;;;;;;;;15.60;66.90;;;;;;5002708;28;19929;-73
2022/05/25 05:33:03;;;;;;;;;;;15.60;66.80;;;;;;5004169;28;19937;-74
2022/05/25 05:35:30;;;;;;;;;;;15.60;66.70;;;;;;5003806;28;19929;-76
2022/05/25 05:37:57;;;;;;;;;;;15.60;66.50;;;;;;4993445;28;19929;-74
2022/05/25 05:40:24;;;;;;;;;;;15.60;66.40;;;;;;4999060;28;19933;-73
2022/05/25 05:42:52;;;;;;;;;;;15.60;66.40;;;;;;5004113;28;19933;-74
2022/05/25 05:45:21;;;;;;;;;;;15.60;67.20;;;;;;5000286;28;20506;-75
2022/05/25 05:47:51;;;;;;;;;;;15.60;66.40;;;;;;4994540;28;19930;-74
2022/05/25 05:50:18;;;;;;;;;;;15.60;66.30;;;;;;5004929;28;19929;-75
2022/05/25 05:52:45;;;;;;;;;;;15.60;66.30;;;;;;4997270;28;20520;-74
2022/05/25 05:55:12;;;;;;;;;;;15.60;66.50;;;;;;4998889;28;19929;-75
2022/05/25 05:57:39;;;;;;;;;;;15.60;66.50;;;;;;5004506;28;19937;-74
2022/05/25 06:00:08;;;;;;;;;;;15.60;66.40;;;;;;5002860;28;19933;-73
2022/05/25 06:02:35;;;;;;;;;;;15.60;66.50;;;;;;5000427;28;19930;-73
2022/05/25 06:05:02;;;;;;;;;;;15.60;66.40;;;;;;5003994;28;20921;-73
2022/05/25 06:07:29;;;;;;;;;;;15.60;66.30;;;;;;5003285;28;19933;-74
2022/05/25 06:09:56;;;;;;;;;;;15.60;66.40;;;;;;5003660;28;19934;-74
2022/05/25 06:12:23;;;;;;;;;;;15.70;66.50;;;;;;5005192;28;20068;-73
2022/05/25 06:14:49;;;;;;;;;;;15.70;66.50;;;;;;4997624;28;19949;-76
2022/05/25 06:20:02;;;;;;;;;;;15.70;66.60;;;;;;4997603;28;19933;-74
2022/05/25 06:22:31;;;;;;;;;;;15.70;66.60;;;;;;5001035;28;19958;-73
2022/05/25 06:24:58;;;;;;;;;;;15.70;66.60;;;;;;4998702;28;19930;-72
2022/05/25 06:27:24;;;;;;;;;;;15.80;66.70;;;;;;4997725;28;20428;-72
2022/05/25 06:29:52;;;;;;;;;;;15.70;66.70;;;;;;5002591;28;19968;-74
2022/05/25 06:32:22;;;;;;;;;;;15.80;66.80;;;;;;4996257;28;19929;-73
2022/05/25 06:34:48;;;;;;;;;;;15.80;66.80;;;;;;4994810;28;19929;-73
2022/05/25 06:37:17;;;;;;;;;;;15.80;66.80;;;;;;4999772;28;19933;-74
2022/05/25 06:39:44;;;;;;;;;;;15.80;66.90;;;;;;5000217;28;19933;-74
2022/05/25 06:42:10;;;;;;;;;;;15.80;67.00;;;;;;5003290;28;19976;-74
2022/05/25 06:44:37;;;;;;;;;;;15.80;67.00;;;;;;4997135;28;19934;-75
2022/05/25 06:47:03;;;;;;;;;;;15.80;67.00;;;;;;4999239;28;20333;-75
2022/05/25 06:49:30;;;;;;;;;;;15.80;66.90;;;;;;5004018;28;19936;-74
2022/05/25 06:51:57;;;;;;;;;;;15.90;67.00;;;;;;4999860;28;19933;-74
2022/05/25 06:54:25;;;;;;;;;;;15.90;67.00;;;;;;4996815;28;19936;-73
2022/05/25 06:56:52;;;;;;;;;;;15.90;66.90;;;;;;5003409;28;19936;-75
2022/05/25 06:59:19;;;;;;;;;;;15.90;66.90;;;;;;5002315;28;19929;-75
2022/05/25 07:01:46;;;;;;;;;;;15.90;67.00;;;;;;5003704;28;19934;-74
2022/05/25 07:04:12;;;;;;;;;;;15.90;66.90;;;;;;5013641;28;19936;-74
2022/05/25 07:06:39;;;;;;;;;;;16.00;67.00;;;;;;4999972;28;20355;-75
2022/05/25 07:09:07;;;;;;;;;;;16.00;67.00;;;;;;4999553;28;19937;-74
2022/05/25 07:11:35;;;;;;;;;;;16.00;66.90;;;;;;4997452;28;19930;-74
2022/05/25 07:14:01;;;;;;;;;;;16.00;66.90;;;;;;4999141;28;19961;-73
2022/05/25 07:16:28;;;;;;;;;;;16.00;66.80;;;;;;4987972;28;19929;-73
2022/05/25 07:18:55;;;;;;;;;;;16.00;66.70;;;;;;4999541;28;20638;-74
2022/05/25 07:21:25;;;;;;;;;;;16.00;66.70;;;;;;5004745;28;20547;-73
2022/05/25 07:23:52;;;;;;;;;;;16.10;66.60;;;;;;4994433;28;19929;-74
2022/05/25 07:26:19;;;;;;;;;;;16.10;66.60;;;;;;4984985;28;19934;-74
2022/05/25 07:28:47;;;;;;;;;;;16.10;66.50;;;;;;5003285;28;19932;-73
2022/05/25 07:31:15;;;;;;;;;;;16.10;66.50;;;;;;4984459;28;19933;-72
2022/05/25 07:33:44;;;;;;;;;;;16.10;66.40;;;;;;4999176;28;19976;-74
2022/05/25 07:36:11;;;;;;;;;;;16.20;66.40;;;;;;4998579;28;19930;-73
2022/05/25 07:38:39;;;;;;;;;;;16.20;66.30;;;;;;4997158;28;19929;-72
2022/05/25 07:41:06;;;;;;;;;;;16.20;66.30;;;;;;5001567;28;19936;-74
2022/05/25 07:43:33;;;;;;;;;;;16.20;66.20;;;;;;5010947;28;20009;-76
2022/05/25 07:46:01;;;;;;;;;;;16.20;66.10;;;;;;4993775;28;19937;-76
2022/05/25 07:48:28;;;;;;;;;;;16.20;66.10;;;;;;5004473;28;19933;-74
2022/05/25 07:50:54;;;;;;;;;;;16.20;66.00;;;;;;5007127;28;19929;-75
2022/05/25 07:56:05;;;;;;;;;;;16.30;65.80;;;;;;4997199;28;19928;-75
2022/05/25 07:58:32;;;;;;;;;;;16.30;65.80;;;;;;5015692;28;19938;-74
2022/05/25 08:01:02;;;;;;;;;;;16.30;65.70;;;;;;5002275;28;19946;-76
2022/05/25 08:06:14;;;;;;;;;;;16.40;65.60;;;;;;5001881;28;19936;-74
2022/05/25 08:08:43;;;;;;;;;;;16.40;65.50;;;;;;5006603;28;19936;-73
2022/05/25 08:11:11;;;;;;;;;;;16.40;65.40;;;;;;5002830;28;19948;-74
2022/05/25 08:13:39;;;;;;;;;;;16.50;65.40;;;;;;5009795;28;19933;-77
2022/05/25 08:16:05;;;;;;;;;;;16.50;65.20;;;;;;4994155;28;19933;-75
2022/05/25 08:18:33;;;;;;;;;;;16.50;65.00;;;;;;4994977;28;19937;-74
2022/05/25 08:21:00;;;;;;;;;;;16.50;65.00;;;;;;5000365;28;19952;-74
2022/05/25 08:23:26;;;;;;;;;;;16.60;65.30;;;;;;5003351;28;19929;-75
2022/05/25 08:25:53;;;;;;;;;;;16.60;64.80;;;;;;5001883;28;20291;-74
2022/05/25 08:28:20;;;;;;;;;;;16.60;64.60;;;;;;5006081;28;19936;-76
2022/05/25 08:30:46;;;;;;;;;;;16.60;64.70;;;;;;5004480;28;20417;-73
2022/05/25 08:33:16;;;;;;;;;;;16.70;64.60;;;;;;4997854;28;20581;-74
2022/05/25 08:35:45;;;;;;;;;;;16.80;64.40;;;;;;5005092;28;19945;-73
2022/05/25 08:38:11;;;;;;;;;;;16.80;65.00;;;;;;5002052;28;19941;-76
2022/05/25 08:40:38;;;;;;;;;;;16.80;63.90;;;;;;5001969;28;19929;-73
2022/05/25 08:43:08;;;;;;;;;;;16.80;63.90;;;;;;4994970;28;19992;-76
2022/05/25 08:45:37;;;;;;;;;;;16.80;63.80;;;;;;5001621;28;20492;-73
2022/05/25 08:48:05;;;;;;;;;;;16.90;63.80;;;;;;5003948;28;19933;-74
2022/05/25 08:50:31;;;;;;;;;;;16.90;63.50;;;;;;4994142;28;19937;-75
2022/05/25 08:53:00;;;;;;;;;;;16.90;63.30;;;;;;5008719;28;19940;-78
2022/05/25 08:55:43;;;;;;;;;;;17.00;63.20;;;;;;4999079;28;19937;-76
2022/05/25 08:58:11;;;;;;;;;;;17.00;63.00;;;;;;5005756;28;19929;-76
2022/05/25 09:00:38;;;;;;;;;;;17.00;63.00;;;;;;5000781;28;19937;-74
2022/05/25 09:03:08;;;;;;;;;;;17.10;62.80;;;;;;5001884;28;19929;-73
2022/05/25 09:05:37;;;;;;;;;;;17.10;62.80;;;;;;4997972;28;19965;-75
2022/05/25 09:08:11;;;;;;;;;;;17.10;62.70;;;;;;5000037;28;19929;-73
2022/05/25 09:10:42;;;;;;;;;;;17.10;62.50;;;;;;4999982;28;19985;-73
2022/05/25 09:13:12;;;;;;;;;;;17.20;62.50;;;;;;5003369;28;20168;-76
2022/05/25 09:16:15;;;;;;;;;;;17.20;62.70;;;;;;4992649;28;19949;-74
2022/05/25 09:18:33;;;;;;;;;;;17.30;62.20;;;;;;5002072;28;19940;-72
2022/05/25 09:21:01;;;;;;;;;;;17.30;61.60;;;;;;4999646;28;19937;-77
2022/05/25 09:23:30;;;;;;;;;;;17.30;61.20;;;;;;4996776;28;20036;-74
2022/05/25 09:25:56;;;;;;;;;;;17.40;61.20;;;;;;4991864;28;19929;-75
2022/05/25 09:28:27;;;;;;;;;;;17.40;61.00;;;;;;4995552;28;19929;-73
2022/05/25 09:30:56;;;;;;;;;;;17.50;60.80;;;;;;4995244;28;19929;-74
2022/05/25 09:33:28;;;;;;;;;;;17.60;60.80;;;;;;5003535;28;19933;-73
2022/05/25 09:35:56;;;;;;;;;;;17.60;60.60;;;;;;5006574;28;19937;-76
2022/05/25 09:38:31;;;;;;;;;;;17.70;60.40;;;;;;4990407;28;19929;-74
2022/05/25 09:41:03;;;;;;;;;;;17.70;60.10;;;;;;5002768;28;19929;-73
2022/05/25 09:43:31;;;;;;;;;;;17.80;59.80;;;;;;5008693;28;19936;-74
2022/05/25 09:45:59;;;;;;;;;;;17.80;59.50;;;;;;4994800;28;19933;-75
2022/05/25 09:48:29;;;;;;;;;;;17.90;59.40;;;;;;4995163;28;20032;-72
2022/05/25 09:51:06;;;;;;;;;;;17.90;59.40;;;;;;5002575;28;19933;-74
2022/05/25 09:53:37;;;;;;;;;;;17.90;59.40;;;;;;4998938;28;19930;-72
2022/05/25 09:56:05;;;;;;;;;;;18.00;59.20;;;;;;4997236;28;19929;-71
2022/05/25 09:58:34;;;;;;;;;;;18.00;59.30;;;;;;4997851;28;19933;-71
2022/05/25 10:01:03;;;;;;;;;;;18.10;59.30;;;;;;4997881;28;19933;-74
2022/05/25 10:03:35;;;;;;;;;;;18.10;59.20;;;;;;4999552;28;19930;-75
2022/05/25 10:06:16;;;;;;;;;;;18.10;59.00;;;;;;5007168;28;19937;-70
2022/05/25 10:08:45;;;;;;;;;;;18.10;58.80;;;;;;5000490;28;19952;-75
2022/05/25 10:11:27;;;;;;;;;;;18.10;58.60;;;;;;5001053;28;19929;-72
2022/05/25 10:13:55;;;;;;;;;;;18.20;58.40;;;;;;5005476;28;19934;-71
2022/05/25 10:16:22;;;;;;;;;;;18.30;58.40;;;;;;4998147;28;20352;-74
2022/05/25 10:18:49;;;;;;;;;;;18.30;58.30;;;;;;4998359;28;19941;-71
2022/05/25 10:21:24;;;;;;;;;;;18.40;58.20;;;;;;5000293;28;19940;-74
2022/05/25 10:23:52;;;;;;;;;;;18.50;58.10;;;;;;4997171;28;20035;-71
2022/05/25 10:26:27;;;;;;;;;;;18.60;58.00;;;;;;4999199;28;19937;-73
2022/05/25 10:28:56;;;;;;;;;;;18.60;58.10;;;;;;4999945;28;19941;-73
2022/05/25 10:37:12;;;;;;;;;;;18.80;57.90;;;;;;4966476;28;20408;-73
2022/05/25 10:39:59;;;;;;;;;;;18.80;58.00;;;;;;5075992;27;19927;-70
2022/05/25 10:42:29;;;;;;;;;;;18.80;57.80;;;;;;5080703;28;19928;-73
2022/05/25 10:45:00;;;;;;;;;;;18.90;57.80;;;;;;5076391;28;20057;-74
2022/05/25 10:47:34;;;;;;;;;;;18.90;57.70;;;;;;5073681;27;19928;-72
2022/05/25 10:50:02;;;;;;;;;;;19.00;57.60;;;;;;5075292;28;19932;-74
2022/05/25 10:52:33;;;;;;;;;;;19.00;57.70;;;;;;5070149;28;19940;-75
2022/05/25 10:55:01;;;;;;;;;;;19.00;57.80;;;;;;5072192;28;20014;-73
2022/05/25 10:57:48;;;;;;;;;;;19.00;57.00;;;;;;5070499;28;19934;-72
2022/05/25 11:00:17;;;;;;;;;;;19.10;57.00;;;;;;5070065;28;19928;-70
2022/05/25 11:02:58;;;;;;;;;;;19.20;57.00;;;;;;5073353;28;19997;-73
2022/05/25 11:05:29;;;;;;;;;;;19.20;56.80;;;;;;5068471;28;19989;-73
2022/05/25 11:07:59;;;;;;;;;;;19.30;56.90;;;;;;5074351;28;19936;-75
2022/05/25 11:10:38;;;;;;;;;;;19.30;56.50;;;;;;5064713;28;19924;-74
2022/05/25 11:13:14;;;;;;;;;;;19.40;56.40;;;;;;5075744;28;20469;-74
2022/05/25 11:15:46;;;;;;;;;;;19.40;56.10;;;;;;5068588;28;20410;-72
2022/05/25 11:18:21;;;;;;;;;;;19.50;55.60;;;;;;5076104;28;20339;-74
2022/05/25 11:20:52;;;;;;;;;;;19.60;55.50;;;;;;5068168;28;19936;-73
2022/05/25 11:23:29;;;;;;;;;;;19.60;55.40;;;;;;5064035;28;20319;-72
2022/05/25 11:26:04;;;;;;;;;;;19.70;55.60;;;;;;5075516;28;20315;-71
2022/05/25 11:28:36;;;;;;;;;;;19.80;55.40;;;;;;5074934;28;19928;-72
2022/05/25 11:31:09;;;;;;;;;;;19.90;55.00;;;;;;5068957;28;20300;-69
2022/05/25 11:33:43;;;;;;;;;;;19.90;54.90;;;;;;5074036;28;19997;-73
2022/05/25 11:36:16;;;;;;;;;;;20.00;55.00;;;;;;5071258;28;19967;-71
2022/05/25 11:38:50;;;;;;;;;;;20.00;55.30;;;;;;5074560;28;19928;-74
2022/05/25 11:41:24;;;;;;;;;;;20.10;53.60;;;;;;5071304;28;20415;-71
2022/05/25 11:44:09;;;;;;;;;;;20.10;53.00;;;;;;5070742;28;19962;-70
2022/05/25 11:46:40;;;;;;;;;;;20.20;53.40;;;;;;5065648;28;20712;-73
2022/05/25 11:49:16;;;;;;;;;;;20.20;53.40;;;;;;5072142;28;19932;-70
2022/05/25 11:51:46;;;;;;;;;;;20.30;53.50;;;;;;5054643;28;20018;-73
2022/05/25 11:54:18;;;;;;;;;;;20.40;53.30;;;;;;5055611;28;20358;-71
2022/05/25 11:56:55;;;;;;;;;;;20.40;53.60;;;;;;5056708;28;19976;-72
2022/05/25 11:59:33;;;;;;;;;;;20.50;52.90;;;;;;5059926;28;19929;-72
2022/05/25 12:02:07;;;;;;;;;;;20.50;52.60;;;;;;5058553;28;19933;-72
2022/05/25 12:04:41;;;;;;;;;;;20.50;52.60;;;;;;5057103;28;20285;-70
2022/05/25 12:07:25;;;;;;;;;;;20.60;52.90;;;;;;5058983;28;19932;-70
2022/05/25 12:10:01;;;;;;;;;;;20.50;52.90;;;;;;5051760;28;20038;-71
2022/05/25 12:12:32;;;;;;;;;;;20.60;52.20;;;;;;5057877;28;19936;-75
2022/05/25 12:15:03;;;;;;;;;;;20.70;52.50;;;;;;5060483;28;19932;-74
2022/05/25 12:17:33;;;;;;;;;;;20.70;52.50;;;;;;5059228;28;19928;-72
2022/05/25 12:20:01;;;;;;;;;;;20.70;52.10;;;;;;5065256;28;19932;-72
2022/05/25 12:22:30;;;;;;;;;;;20.80;51.40;;;;;;5062202;28;19929;-73
2022/05/25 12:24:58;;;;;;;;;;;20.90;51.00;;;;;;5064406;28;19990;-74
2022/05/25 12:27:29;;;;;;;;;;;20.90;51.00;;;;;;5065488;28;19936;-72
2022/05/25 12:29:59;;;;;;;;;;;21.00;51.30;;;;;;5063943;28;20357;-72
2022/05/25 12:32:27;;;;;;;;;;;21.00;50.80;;;;;;5057704;28;19935;-70
2022/05/25 12:34:54;;;;;;;;;;;21.10;51.60;;;;;;5054446;28;20489;-69
2022/05/25 12:37:25;;;;;;;;;;;21.10;51.80;;;;;;5047855;28;19936;-70
2022/05/25 12:39:59;;;;;;;;;;;21.00;51.10;;;;;;5054464;28;20334;-72
2022/05/25 12:42:33;;;;;;;;;;;21.10;51.80;;;;;;5054084;28;19940;-73
2022/05/25 12:50:40;;;;;;;;;;;21.30;52.20;;;;;;5039756;28;19975;-73
2022/05/25 12:53:19;;;;;;;;;;;21.40;51.80;;;;;;5048519;28;20020;-70
2022/05/25 12:55:53;;;;;;;;;;;21.40;51.20;;;;;;5059300;28;19983;-71
2022/05/25 12:58:32;;;;;;;;;;;21.40;51.60;;;;;;5061752;28;19928;-74
2022/05/25 13:01:05;;;;;;;;;;;21.50;51.10;;;;;;5063612;28;19932;-71
2022/05/25 13:03:36;;;;;;;;;;;21.50;50.90;;;;;;5058283;28;19932;-72
2022/05/25 13:06:04;;;;;;;;;;;21.50;50.70;;;;;;5061099;28;19939;-70
2022/05/25 13:08:58;;;;;;;;;;;21.60;51.00;;;;;;5069647;28;19935;-72
2022/05/25 13:11:29;;;;;;;;;;;21.60;50.60;;;;;;5062488;28;20551;-71
2022/05/25 13:13:56;;;;;;;;;;;21.60;51.00;;;;;;5063377;28;19929;-73
2022/05/25 13:16:37;;;;;;;;;;;21.60;51.10;;;;;;5062669;28;19929;-70
2022/05/25 13:19:15;;;;;;;;;;;21.60;50.90;;;;;;5061354;28;20299;-70
2022/05/25 13:21:42;;;;;;;;;;;21.60;51.70;;;;;;5055272;28;19932;-72
2022/05/25 13:24:15;;;;;;;;;;;21.70;50.50;;;;;;5061941;28;19932;-71
2022/05/25 13:26:52;;;;;;;;;;;21.70;50.60;;;;;;5065436;28;19932;-73
2022/05/25 13:29:22;;;;;;;;;;;21.70;50.30;;;;;;5062935;28;19928;-74
2022/05/25 13:31:53;;;;;;;;;;;21.80;50.20;;;;;;5061025;28;20217;-74
2022/05/25 13:34:21;;;;;;;;;;;21.80;50.20;;;;;;5054789;28;19929;-74
2022/05/25 13:36:50;;;;;;;;;;;21.90;50.10;;;;;;5056644;28;19928;-72
2022/05/25 13:39:18;;;;;;;;;;;21.90;50.20;;;;;;5063753;28;20025;-71
2022/05/25 13:41:49;;;;;;;;;;;22.00;51.20;;;;;;5064876;28;19935;-71
2022/05/25 13:44:18;;;;;;;;;;;22.00;50.70;;;;;;5055008;28;20392;-72
2022/05/25 13:46:49;;;;;;;;;;;22.10;50.50;;;;;;5057819;28;20392;-72
2022/05/25 13:49:25;;;;;;;;;;;22.10;49.60;;;;;;5057203;28;19959;-72
2022/05/25 13:52:08;;;;;;;;;;;22.20;49.70;;;;;;5063918;28;20011;-71
2022/05/25 13:54:36;;;;;;;;;;;22.20;49.20;;;;;;5060763;28;19935;-73
2022/05/25 13:57:03;;;;;;;;;;;22.30;48.50;;;;;;5063357;28;19994;-73
2022/05/25 13:59:32;;;;;;;;;;;22.30;48.60;;;;;;5063236;28;19982;-75
2022/05/25 14:02:10;;;;;;;;;;;22.40;49.00;;;;;;5062621;28;19929;-76
2022/05/25 14:04:38;;;;;;;;;;;22.40;48.30;;;;;;5064356;28;19929;-74
2022/05/25 14:07:05;;;;;;;;;;;22.40;47.70;;;;;;5063357;28;19936;-72
2022/05/25 14:12:18;;;;;;;;;;;22.50;48.10;;;;;;5061793;28;20016;-74
2022/05/25 14:14:50;;;;;;;;;;;22.50;47.80;;;;;;5052557;28;20015;-73
2022/05/25 14:17:21;;;;;;;;;;;22.50;48.30;;;;;;5048974;28;20407;-74
2022/05/25 14:19:50;;;;;;;;;;;22.50;48.20;;;;;;5050934;28;20001;-74
2022/05/25 14:22:17;;;;;;;;;;;22.50;48.70;;;;;;5053088;28;19929;-73
2022/05/25 14:24:45;;;;;;;;;;;22.50;48.10;;;;;;5053206;28;19929;-73
2022/05/25 14:27:17;;;;;;;;;;;22.60;48.00;;;;;;5052782;28;19928;-75
2022/05/25 14:29:44;;;;;;;;;;;22.60;48.30;;;;;;5047251;28;19939;-74
2022/05/25 14:32:12;;;;;;;;;;;22.80;42.70;;;;;;5047699;28;19932;-74
2022/05/25 14:34:40;;;;;;;;;;;23.10;42.80;;;;;;5048816;28;19940;-72
2022/05/25 14:37:08;;;;;;;;;;;23.40;42.60;;;;;;5048720;28;19928;-75
2022/05/25 14:39:36;;;;;;;;;;;23.50;43.10;;;;;;5058970;28;19930;-76
2022/05/25 14:42:08;;;;;;;;;;;23.70;43.00;;;;;;5053777;28;20419;-73
2022/05/25 14:44:42;;;;;;;;;;;23.80;42.80;;;;;;5054365;28;20412;-75
2022/05/25 14:47:18;;;;;;;;;;;24.00;42.30;;;;;;5047946;28;19932;-74
2022/05/25 14:49:49;;;;;;;;;;;24.10;41.70;;;;;;5050108;28;19936;-77
2022/05/25 14:52:17;;;;;;;;;;;24.20;41.50;;;;;;5050982;28;19929;-74
2022/05/25 14:54:44;;;;;;;;;;;24.30;41.90;;;;;;5048927;28;19928;-74
2022/05/25 14:57:11;;;;;;;;;;;24.40;42.10;;;;;;5049332;28;19928;-74